Flight Track Log - Related Links

Times and Time Zones

All times are in EDT time to prevent confusion due to time zone crossing. See the EJA122 flight status page for this flight to view local times or setup timezone preferences in your user account.

Time Position Orientation Groundspeed Altitude Reporting Facility
EDT Latitude Longitude Course Direction KTS MPH feet Rate Location/Type
15:14 25.9092 -80.2661 62° Northeast 157 181 500  Level Miami Center
15:16 25.9397 -80.2022 62° Northeast 232 267 2,000 638 Climbing Miami Center
15:17 25.9867 -80.2544 315° West 259 298 2,000 885 Level Miami Center
15:18 26.0119 -80.3267 291° West 261 300 3,800 2,115 Climbing Miami Center
15:19 26.0100 -80.4078 268° West 258 297 6,300 2,458 Climbing Miami Center
15:20 26.0011 -80.5206 265° West 273 314 9,700 1,762 Climbing Miami Center
15:21 26.0450 -80.5983 302° West 273 314 10,500 1,200 Climbing Miami Center
15:22 26.1164 -80.6653 320° Northwest 297 342 12,100 1,650 Climbing Miami Center
15:23 26.1878 -80.7369 318° Northwest 322 371 13,800 1,700 Climbing Miami Center
15:24 26.2656 -80.7950 326° Northwest 338 389 15,500 1,550 Climbing Miami Center
15:25 26.3414 -80.8486 328° Northwest 351 404 16,900 1,450 Climbing Miami Center
15:26 26.4314 -80.9119 328° Northwest 351 404 18,400 1,400 Climbing Miami Center
15:27 26.5072 -80.9633 329° Northwest 351 404 19,700 1,300 Climbing Miami Center
15:28 26.5892 -81.0197 328° Northwest 351 404 21,000 1,350 Climbing Miami Center
15:29 26.6792 -81.0833 328° Northwest 351 404 22,400 1,300 Climbing Miami Center
15:30 26.7611 -81.1397 328° Northwest 351 404 23,600 1,200 Climbing Miami Center
15:31 26.8428 -81.1986 327° Northwest 351 404 24,800 1,200 Climbing Miami Center
15:32 26.9167 -81.2478 329° Northwest 345 397 26,000 1,150 Climbing Miami Center
15:33 27.0042 -81.3139 326° Northwest 345 397 27,100 1,000 Climbing Miami Center
15:34 27.0861 -81.3708 328° Northwest 345 397 28,000 450 Climbing Miami Center
15:35 27.1719 -81.4300 328° Northwest 350 403 28,000  Level Miami Center
15:36 27.2636 -81.4944 328° Northwest 367 422 28,000  Level Miami Center
15:37 27.3494 -81.5564 327° Northwest 393 452 28,000  Level Miami Center
15:38 27.4575 -81.6356 327° Northwest 408 470 28,000  Level Miami Center
15:39 27.5553 -81.7078 327° Northwest 414 476 28,000  Level Miami Center
15:40 27.6550 -81.7775 328° Northwest 419 482 28,000  Level Miami Center
15:42 27.8731 -81.9278 329° Northwest 438 504 28,000  Level Jacksonville Center
15:43 27.9736 -82.0042 326° Northwest 444 511 28,000  Level Jacksonville Center
15:44 28.0722 -82.0906 322° Northwest 444 511 28,000  Level Jacksonville Center
15:45 28.1689 -82.1769 322° Northwest 444 511 28,000  Level Jacksonville Center
15:46 28.2694 -82.2658 322° Northwest 449 517 28,000  Level Jacksonville Center
15:47 28.3658 -82.3547 321° Northwest 449 517 28,000  Level Jacksonville Center
15:48 28.4642 -82.4439 321° Northwest 454 522 28,000 -150 Level Jacksonville Center
15:49 28.5625 -82.5308 322° Northwest 454 522 27,700 -550 Descending Jacksonville Center
15:50 28.6608 -82.6206 321° Northwest 454 522 26,900 -1,050 Descending Jacksonville Center
15:51 28.7611 -82.7103 322° Northwest 454 522 25,600 -1,400 Descending Jacksonville Center
15:52 28.8594 -82.8000 321° Northwest 454 522 24,100 -1,450 Descending Jacksonville Center
15:53 28.9575 -82.8878 322° Northwest 454 522 22,700 -1,050 Descending Jacksonville Center
15:54 29.0536 -82.9758 321° Northwest 454 522 22,000 -350 Descending Jacksonville Center
15:55 29.1433 -83.0567 322° Northwest 439 505 22,000  Level Jacksonville Center
15:56 29.2350 -83.1425 321° Northwest 425 489 22,000 -400 Level Jacksonville Center
15:57 29.3267 -83.2283 321° Northwest 425 489 21,200 -1,300 Descending Jacksonville Center
15:58 29.4142 -83.3097 321° Northwest 419 482 19,400 -1,700 Descending Jacksonville Center
15:59 29.5014 -83.3889 322° Northwest 409 471 17,800 -1,650 Descending Jacksonville Center
16:00 29.5806 -83.4706 318° Northwest 391 450 16,100 -1,750 Descending Jacksonville Center
16:01 29.6531 -83.5594 313° West 378 435 14,300 -1,800 Descending Jacksonville Center
16:02 29.7256 -83.6508 312° West 378 435 12,500 -1,650 Descending Jacksonville Center
16:03 29.7961 -83.7375 313° West 378 435 11,000 -750 Descending Jacksonville Center
16:04 29.8664 -83.8194 315° West 366 421 11,000 -200 Level Jacksonville Center
16:05 29.9389 -83.9017 316° Northwest 366 421 10,600 -1,000 Descending Jacksonville Center
16:06 30.0008 -83.9719 316° Northwest 338 389 9,000 -1,900 Descending Jacksonville Center
16:07 30.0525 -84.0372 312° West 304 350 6,800 -2,450 Descending Jacksonville Center
16:08 30.1064 -84.1050 313° West 286 329 4,100 -1,400 Descending Jacksonville Center
16:09 30.1619 -84.1706 314° West 286 329 4,000 -50 Descending Jacksonville Center
16:10 30.2367 -84.2150 333° Northwest 281 323 4,000  Level Jacksonville Center
16:11 30.3075 -84.2375 345° North 270 311 4,000 -550 Level Jacksonville Center
16:12 30.3575 -84.2553 343° North 225 259 2,900 -1,100 Descending Jacksonville Center
16:14 30.3833 -84.3500 325° Northwest  Level FlightAware Approximate
16:21 30.3967 -84.3509 325° Northwest  Level Estimated
16:22 30.3967 -84.3509 325° Northwest  Level Estimated

Login

Don't have an account? Register now (free) for customized features, flight alerts, and more!